x

Western Hawaii - 205 Nm Sw Of Honolulu, Hi (51003) Wave Buoy

3:50pm - Fri 28th Nov 2014 All times are HST. -10 hours from GMT.

  • Sig Wave height 8.5ft
  • Peak Period 10s
  • Average Period 6s
  • Wind
    22mph, 27mph gusts
  • Sea Temp 80°f
  • Air Temp 78°f
  • Sea Pressure 1013.3mb
  • Western  Hawaii - 205 Nm Sw Of Honolulu, Hi
  • Western  Hawaii - 205 Nm Sw Of Honolulu, Hi

More Historic Weather Station data

Upgrade to MSW Pro to gain access to the past 30 days of data for over 8000 Wavebouys and Weather Stations around the globe.

Join Pro

Comparision Forecast

View Surf forecast
   
Fri 11/28 3:50pm 8.5ft 10s 6s 22 27 mph 1013.3mb 80f 78f
2:50pm 9.5ft 12s 7s 22 25 mph 1013.7mb 80f 79f
1:50pm 9.5ft 8s 7s 20 25 mph 1013.9mb 80f 79f
12:50pm 10ft 13s 7s 20 25 mph 1014.6mb 80f 78f
11:50am 9ft 12s 6s 22 27 mph 1015.3mb 80f 78f
10:50am 9.5ft 12s 7s 20 25 mph 1016.3mb 80f 79f
9:50am 10ft 13s 7s 22 25 mph 1016.2mb 80f 78f
8:50am 9ft 14s 6s 25 27 mph 1015.8mb 80f 78f
7:50am 9.5ft 14s 6s 22 27 mph 1015.4mb 80f 78f
6:50am 9ft 8s 6s 22 29 mph 1015mb 80f 78f
5:50am 8ft 13s 6s 22 27 mph 1014.6mb 80f 78f
4:50am 9ft 8s 6s 22 27 mph 1014.4mb 80f 78f
3:50am 8.5ft 7s 6s 22 27 mph 1014.4mb 80f 78f
2:50am 9ft 8s 6s 22 27 mph 1015mb 80f 78f
1:50am 9ft 8s 6s 22 27 mph 1015.5mb 80f 78f
12:50am 9ft 8s 6s 20 25 mph 1015.9mb 80f 78f
Thu 11/27 11:50pm 8.5ft 7s 6s 22 25 mph 1016.2mb 80f 78f
10:50pm 9ft 14s 6s 22 27 mph 1016.2mb 80f 78f
9:50pm 10ft 8s 6s 22 25 mph 1016.4mb 80f 78f
8:50pm 9ft 8s 6s 22 27 mph 1016.5mb 80f 78f
7:50pm 8.5ft 7s 6s 22 27 mph 1016.1mb 80f 78f
6:50pm 9ft 8s 6s 22 27 mph 1015.5mb 80f 78f
5:50pm 8.5ft 8s 6s 22 27 mph 1015.1mb 80f 78f
4:50pm 9ft 8s 6s 22 27 mph 1014.4mb 80f 78f
3:50pm 8ft 10s 6s 20 25 mph 1014.2mb 80f 79f
2:50pm 9ft 10s 6s 20 22 mph 1014mb 80f 78f
1:50pm 9ft 7s 6s 20 25 mph 1014.4mb 81f 78f
12:50pm 9ft 11s 7s 18 22 mph 1015mb 81f 78f
11:50am 9ft 8s 6s 20 22 mph 1015.8mb 81f 78f
10:50am 8ft 7s 6s 18 22 mph 1016.6mb 80f 78f
9:50am 9.5ft 9s 6s 20 25 mph 1016.9mb 80f 78f
8:50am 9ft 13s 7s 18 20 mph 1017mb 80f 78f
7:50am 9ft 8s 7s 20 22 mph 1016.2mb 80f 78f
6:50am 9.5ft 8s 6s 20 25 mph 1015.7mb 80f 78f
5:50am 9.5ft 13s 7s 20 25 mph 1015.4mb 80f 78f
4:50am 10ft 12s 7s 22 25 mph 1015.3mb 80f 78f
3:50am 10ft 8s 7s 22 27 mph 1015.1mb 80f 78f
2:50am 10.5ft 14s 7s 22 27 mph 1015.5mb 80f 78f
1:50am 10ft 11s 7s 22 29 mph 1016.4mb 80f 78f
12:50am 9ft 11s 6s 20 22 mph 1017mb 80f 78f
Wed 11/26 11:50pm 9ft 12s 7s 20 25 mph 1016.9mb 80f 78f
10:50pm 9ft 7s 7s 20 22 mph 1017.1mb 80f 78f
9:50pm 9ft 12s 7s 20 22 mph 1017mb 80f 78f
8:50pm 9ft 8s 7s 18 22 mph 1016.9mb 80f 78f
7:50pm 9ft 11s 7s 20 22 mph 1016.8mb 80f 78f
6:50pm 8ft 10s 6s 20 22 mph 1015.9mb 80f 78f
5:50pm 8ft 12s 6s 20 25 mph 1015.4mb 80f 78f
4:50pm 8ft 11s 6s 20 25 mph 1015mb 80f 78f
3:50pm 8.5ft 12s 6s 20 25 mph 1014.6mb 80f 78f
2:50pm 8ft 8s 6s 22 27 mph 1014.4mb 80f 78f
1:50pm 8.5ft 10s 6s 22 27 mph 1014.6mb 80f 78f
12:50pm 8.5ft 11s 6s 22 27 mph 1015.3mb 80f 78f
11:50am 8ft 12s 6s 22 25 mph 1016.4mb 80f 78f
10:50am 8ft 11s 6s 20 25 mph 1017.3mb 80f 78f
9:50am 8ft 12s 6s 20 25 mph 1017.5mb 80f 78f
8:50am 8.5ft 10s 7s 20 27 mph 1017.1mb 80f 78f
7:50am 8.5ft 13s 7s 18 22 mph 1016.8mb 80f 78f
6:50am 8.5ft 13s 7s 18 20 mph 1016.3mb 80f 78f
5:50am 8ft 10s 6s 18 20 mph 1015.7mb 80f 78f
4:50am 8ft 13s 6s 18 20 mph 1015.2mb 80f 78f
3:50am 8.5ft 10s 7s 18 22 mph 1015mb 80f 78f
2:50am 9ft 12s 7s 16 20 mph 1015.2mb 80f 78f
1:50am 9ft 9s 7s 18 22 mph 1015.7mb 80f 77f
12:50am 9.5ft 9s 7s 16 22 mph 1016.1mb 80f 76f
Tue 11/25 11:50pm 9ft 9s 7s 22 27 mph 1016.2mb 80f 77f
10:50pm 9ft 9s 7s 22 27 mph 1016.4mb 80f 77f
9:50pm 9ft 11s 7s 20 25 mph 1016.5mb 81f 78f
8:50pm 9.5ft 11s 7s 20 25 mph 1016.3mb 81f 78f
7:50pm 10.5ft 10s 7s 20 25 mph 1015.9mb 81f 78f
6:50pm 10ft 9s 7s 20 25 mph 1015.2mb 81f 77f
5:50pm 10.5ft 11s 7s 22 27 mph 1014.6mb 81f 77f
4:50pm 11ft 12s 7s 22 25 mph 1014.2mb 81f 78f
3:50pm 10ft 11s 7s 22 25 mph 1013.8mb 81f 77f
2:50pm 10.5ft 12s 8s 20 25 mph 1013.7mb 81f 77f
1:50pm 11ft 11s 8s 20 22 mph 1013.8mb 81f 77f
12:50pm 10.5ft 10s 7s 20 22 mph 1014.3mb 81f 78f
11:50am 11ft 12s 8s 20 25 mph 1015.2mb 81f 78f
10:50am 12ft 12s 8s 20 25 mph 1015.9mb 81f 78f
9:50am 12ft 10s 8s 22 27 mph 1016.1mb 81f 77f
8:50am 11.5ft 12s 7s 20 25 mph 1015.8mb 81f 77f
7:50am 11ft 11s 7s 22 27 mph 1015.2mb 81f 77f
6:50am 9.5ft 9s 7s 16 20 mph 1015.2mb 81f 77f
5:50am 10.5ft 12s 7s 16 20 mph 1014.7mb 81f 77f
4:50am 9.5ft 10s 7s 16 20 mph 1014.4mb 81f 77f
3:50am 10.5ft 11s 7s 16 18 mph 1014.2mb 81f 77f